createdAt,value
2022-11-18T00:01:34.797Z,-1.73
2022-11-18T00:04:01.286Z,-1.68
2022-11-18T00:06:29.282Z,-1.63
2022-11-18T00:08:56.420Z,-1.67
2022-11-18T00:11:57.178Z,-1.67
2022-11-18T00:14:27.352Z,-1.68
2022-11-18T00:16:56.906Z,-1.64
2022-11-18T00:19:28.925Z,-1.73
2022-11-18T00:21:55.516Z,-1.73
2022-11-18T00:24:22.087Z,-1.89
2022-11-18T00:26:48.804Z,-2.08
2022-11-18T00:29:16.142Z,-1.99
2022-11-18T00:31:43.187Z,-1.95
2022-11-18T00:34:13.225Z,-1.98
2022-11-18T00:36:40.584Z,-1.97
2022-11-18T00:39:07.111Z,-1.99
2022-11-18T00:41:52.197Z,-1.88
2022-11-18T00:44:18.619Z,-1.83
2022-11-18T00:46:45.253Z,-1.90
2022-11-18T00:49:11.695Z,-1.81
2022-11-18T00:51:38.143Z,-1.97
2022-11-18T00:54:04.691Z,-1.86
2022-11-18T00:56:31.360Z,-1.88
2022-11-18T00:58:57.945Z,-1.89
2022-11-18T01:01:24.721Z,-1.91
2022-11-18T01:03:51.226Z,-1.95
2022-11-18T01:06:17.877Z,-1.88
2022-11-18T01:08:44.610Z,-1.84
2022-11-18T01:11:30.039Z,-1.76
2022-11-18T01:13:56.464Z,-1.77
2022-11-18T01:16:25.092Z,-1.63
2022-11-18T01:18:51.556Z,-1.59
2022-11-18T01:21:18.098Z,-1.75
2022-11-18T01:23:45.022Z,-1.99
2022-11-18T01:26:13.646Z,-1.87
2022-11-18T01:28:40.250Z,-1.84
2022-11-18T01:31:14.623Z,-1.94
2022-11-18T01:33:41.819Z,-1.80
2022-11-18T01:36:22.975Z,-1.83
2022-11-18T01:38:50.019Z,-1.82
2022-11-18T01:41:17.115Z,-1.75
2022-11-18T01:43:58.807Z,-1.85
2022-11-18T01:46:30.344Z,-1.93
2022-11-18T01:49:08.378Z,-1.81
2022-11-18T01:51:39.328Z,-1.85
2022-11-18T01:54:08.784Z,-1.68
2022-11-18T01:56:40.244Z,-1.70
2022-11-18T01:59:09.622Z,-1.63
2022-11-18T02:01:36.196Z,-1.63
2022-11-18T02:04:02.711Z,-1.67
2022-11-18T02:06:29.142Z,-1.63
2022-11-18T02:08:56.523Z,-1.57
2022-11-18T02:11:42.060Z,-1.55
2022-11-18T02:14:09.857Z,-1.54
2022-11-18T02:17:00.142Z,-1.47
2022-11-18T02:19:49.158Z,-1.39
2022-11-18T02:22:52.160Z,-1.43
2022-11-18T02:25:33.835Z,-1.42
2022-11-18T02:28:18.035Z,-1.39
2022-11-18T02:31:12.972Z,-1.33
2022-11-18T02:33:54.850Z,-1.36
2022-11-18T02:36:40.838Z,-1.35
2022-11-18T02:39:17.807Z,-1.40
2022-11-18T02:41:46.298Z,-1.41
2022-11-18T02:44:16.015Z,-1.36
2022-11-18T02:46:45.298Z,-1.34
2022-11-18T02:49:21.568Z,-1.45
2022-11-18T02:51:49.279Z,-1.44
2022-11-18T02:54:17.305Z,-1.44
2022-11-18T02:56:44.572Z,-1.42
2022-11-18T02:59:11.079Z,-1.37
2022-11-18T03:01:37.683Z,-1.39
2022-11-18T03:04:04.272Z,-1.40
2022-11-18T03:06:36.952Z,-1.40
2022-11-18T03:09:14.734Z,-1.40
2022-11-18T03:11:55.803Z,-1.42
2022-11-18T03:14:51.447Z,-1.43
2022-11-18T03:17:20.733Z,-1.44
2022-11-18T03:20:03.267Z,-1.40
2022-11-18T03:22:46.717Z,-1.49
2022-11-18T03:25:23.909Z,-1.60
2022-11-18T03:28:27.823Z,-1.58
2022-11-18T03:30:59.129Z,-1.51
2022-11-18T03:33:31.396Z,-1.63
2022-11-18T03:35:58.965Z,-1.64
2022-11-18T03:38:29.872Z,-1.68
2022-11-18T03:41:00.867Z,-1.67
2022-11-18T03:43:31.680Z,-1.73
2022-11-18T03:46:04.995Z,-1.89
2022-11-18T03:48:34.649Z,-2.09
2022-11-18T03:51:06.551Z,-2.13
2022-11-18T03:53:35.455Z,-2.20
2022-11-18T03:56:17.727Z,-2.18
2022-11-18T03:58:56.062Z,-2.13
2022-11-18T04:01:34.723Z,-2.32
2022-11-18T04:04:01.418Z,-2.21
2022-11-18T04:06:43.130Z,-2.24
2022-11-18T04:09:13.934Z,-2.21
2022-11-18T04:12:03.136Z,-2.26
2022-11-18T04:14:32.217Z,-2.20
2022-11-18T04:16:58.762Z,-2.10
2022-11-18T04:19:25.258Z,-2.12
2022-11-18T04:21:51.786Z,-2.29
2022-11-18T04:24:18.247Z,-2.25
2022-11-18T04:26:44.840Z,-2.30
2022-11-18T04:29:11.357Z,-2.39
2022-11-18T04:31:37.848Z,-2.45
2022-11-18T04:34:04.348Z,-2.53
2022-11-18T04:36:30.778Z,-2.62
2022-11-18T04:38:57.179Z,-2.53
2022-11-18T04:41:43.845Z,-2.51
2022-11-18T04:44:13.177Z,-2.64
2022-11-18T04:46:43.625Z,-2.68
2022-11-18T04:49:11.733Z,-2.64
2022-11-18T04:51:38.147Z,-2.64
2022-11-18T04:54:04.901Z,-2.69
2022-11-18T04:56:31.665Z,-2.67
2022-11-18T04:59:02.751Z,-2.71
2022-11-18T05:01:29.906Z,-2.67
2022-11-18T05:03:56.930Z,-2.55
2022-11-18T05:06:23.854Z,-2.47
2022-11-18T05:08:50.341Z,-2.56
2022-11-18T05:11:35.797Z,-2.43
2022-11-18T05:14:02.376Z,-2.48
2022-11-18T05:16:28.927Z,-2.36
2022-11-18T05:18:55.508Z,-2.33
2022-11-18T05:21:21.916Z,-2.42
2022-11-18T05:23:48.569Z,-2.28
2022-11-18T05:26:15.206Z,-2.48
2022-11-18T05:28:41.655Z,-2.46
2022-11-18T05:31:09.599Z,-2.30
2022-11-18T05:33:36.626Z,-2.38
2022-11-18T05:36:11.081Z,-2.43
2022-11-18T05:38:37.880Z,-2.57
2022-11-18T05:41:05.037Z,-2.70
2022-11-18T05:43:31.648Z,-2.68
2022-11-18T05:45:58.877Z,-2.73
2022-11-18T05:48:25.705Z,-2.77
2022-11-18T05:50:54.067Z,-2.78
2022-11-18T05:53:24.887Z,-2.77
2022-11-18T05:55:57.566Z,-2.77
2022-11-18T05:58:24.237Z,-2.86
2022-11-18T06:00:52.775Z,-2.79
2022-11-18T06:03:26.205Z,-2.74
2022-11-18T06:05:58.587Z,-2.72
2022-11-18T06:08:29.788Z,-2.65
2022-11-18T06:10:56.328Z,-2.79
2022-11-18T06:13:50.438Z,-2.74
2022-11-18T06:16:18.929Z,-2.69
2022-11-18T06:18:45.544Z,-2.67
2022-11-18T06:21:12.111Z,-2.64
2022-11-18T06:23:40.367Z,-2.62
2022-11-18T06:26:07.881Z,-2.60
2022-11-18T06:28:34.570Z,-2.57
2022-11-18T06:31:00.996Z,-2.66
2022-11-18T06:33:27.467Z,-2.66
2022-11-18T06:35:54.584Z,-2.68
2022-11-18T06:38:24.637Z,-2.62
2022-11-18T06:40:51.881Z,-2.56
2022-11-18T06:43:37.282Z,-2.60
2022-11-18T06:46:24.258Z,-2.60
2022-11-18T06:48:51.363Z,-2.77
2022-11-18T06:51:18.214Z,-2.71
2022-11-18T06:53:44.874Z,-2.69
2022-11-18T06:56:13.863Z,-2.64
2022-11-18T06:58:40.518Z,-2.66
2022-11-18T07:01:17.919Z,-2.64
2022-11-18T07:03:46.046Z,-2.63
2022-11-18T07:06:15.076Z,-2.57
2022-11-18T07:08:41.874Z,-2.49
2022-11-18T07:11:11.409Z,-2.50
2022-11-18T07:13:43.177Z,-2.44
2022-11-18T07:16:13.014Z,-2.37
2022-11-18T07:18:41.417Z,-2.38
2022-11-18T07:21:10.328Z,-2.30
2022-11-18T07:23:37.005Z,-2.32
2022-11-18T07:26:04.008Z,-2.41
2022-11-18T07:28:30.790Z,-2.49
2022-11-18T07:31:05.223Z,-2.37
2022-11-18T07:33:32.656Z,-2.32
2022-11-18T07:36:04.585Z,-2.34
2022-11-18T07:38:31.381Z,-2.28
2022-11-18T07:41:04.734Z,-2.24
2022-11-18T07:43:31.272Z,-2.18
2022-11-18T07:45:57.812Z,-2.10
2022-11-18T07:48:24.264Z,-2.15
2022-11-18T07:50:52.388Z,-2.15
2022-11-18T07:53:18.980Z,-2.17
2022-11-18T07:55:45.832Z,-2.13
2022-11-18T07:58:12.294Z,-2.03
2022-11-18T08:00:38.755Z,-2.08
2022-11-18T08:03:06.505Z,-2.20
2022-11-18T08:05:33.090Z,-2.06
2022-11-18T08:07:59.780Z,-2.19
2022-11-18T08:10:26.184Z,-2.10
2022-11-18T08:12:52.669Z,-2.07
2022-11-18T08:15:19.187Z,-1.94
2022-11-18T08:17:46.049Z,-1.94
2022-11-18T08:20:12.589Z,-1.93
2022-11-18T08:22:39.381Z,-2.08
2022-11-18T08:25:06.339Z,-1.99
2022-11-18T08:27:32.819Z,-1.87
2022-11-18T08:29:59.307Z,-1.92
2022-11-18T08:32:25.952Z,-1.91
2022-11-18T08:34:52.673Z,-1.91
2022-11-18T08:37:19.300Z,-2.10
2022-11-18T08:39:46.125Z,-2.04
2022-11-18T08:42:12.746Z,-2.02
2022-11-18T08:44:39.300Z,-2.09
2022-11-18T08:47:05.730Z,-1.93
2022-11-18T08:49:32.719Z,-1.92
2022-11-18T08:51:59.508Z,-1.88
2022-11-18T08:54:25.940Z,-1.86
2022-11-18T08:56:52.406Z,-1.85
2022-11-18T08:59:19.344Z,-1.78
2022-11-18T09:01:46.359Z,-1.92
2022-11-18T09:04:12.911Z,-1.83
2022-11-18T09:06:40.432Z,-1.72
2022-11-18T09:09:08.227Z,-1.53
2022-11-18T09:11:35.116Z,-1.60
2022-11-18T09:16:48.795Z,-1.61
2022-11-18T09:22:03.994Z,-1.57
2022-11-18T09:24:30.675Z,-1.46
2022-11-18T09:26:57.145Z,-1.62
2022-11-18T09:29:26.205Z,-1.73
2022-11-18T09:31:54.285Z,-1.79
2022-11-18T09:34:21.488Z,-1.76
2022-11-18T09:36:48.007Z,-1.76
2022-11-18T09:39:14.671Z,-1.75
2022-11-18T09:41:45.507Z,-1.54
2022-11-18T09:44:36.679Z,-1.38
2022-11-18T09:47:25.549Z,-1.48
2022-11-18T09:49:55.287Z,-1.54
2022-11-18T09:52:35.890Z,-1.42
2022-11-18T09:55:11.753Z,-1.50
2022-11-18T09:57:40.463Z,-1.55
2022-11-18T10:00:14.854Z,-1.72
2022-11-18T10:02:51.147Z,-1.84
2022-11-18T10:05:24.093Z,-1.94
2022-11-18T10:08:02.003Z,-1.88
2022-11-18T10:10:40.042Z,-1.76
2022-11-18T10:13:18.619Z,-1.72
2022-11-18T10:16:18.114Z,-1.80
2022-11-18T10:19:00.302Z,-1.61
2022-11-18T10:21:49.680Z,-1.49
2022-11-18T10:24:21.890Z,-1.64
2022-11-18T10:26:58.460Z,-1.84
2022-11-18T10:29:25.493Z,-1.77
2022-11-18T10:32:12.914Z,-1.59
2022-11-18T10:34:58.852Z,-1.45
2022-11-18T10:40:27.440Z,-1.09
2022-11-18T10:42:57.265Z,-1.20
2022-11-18T10:45:23.617Z,-1.11
2022-11-18T10:48:09.602Z,-1.11
2022-11-18T10:50:44.499Z,-1.28
2022-11-18T10:53:33.647Z,-1.21
2022-11-18T10:56:05.106Z,-1.22
2022-11-18T10:58:32.904Z,-1.50
2022-11-18T11:01:08.049Z,-1.62
2022-11-18T11:03:42.508Z,-1.58
2022-11-18T11:06:27.109Z,-1.51
2022-11-18T11:08:56.478Z,-1.44
2022-11-18T11:11:31.543Z,-1.30
2022-11-18T11:14:22.470Z,-1.21
2022-11-18T11:17:02.837Z,-1.29
2022-11-18T11:19:36.808Z,-1.25
2022-11-18T11:22:05.120Z,-1.17
2022-11-18T11:24:31.567Z,-1.22
2022-11-18T11:30:14.894Z,-1.15
2022-11-18T11:33:22.690Z,-1.19
2022-11-18T11:36:18.153Z,-1.25
2022-11-18T11:39:01.314Z,-1.00
2022-11-18T11:41:38.030Z,-0.97
2022-11-18T11:44:07.501Z,-1.03
2022-11-18T11:47:09.150Z,-0.82
2022-11-18T11:49:42.840Z,-1.17
2022-11-18T11:52:17.149Z,-1.21
2022-11-18T11:54:49.447Z,-1.23
2022-11-18T11:57:53.710Z,-1.24
2022-11-18T12:00:20.531Z,-1.07
2022-11-18T12:03:38.896Z,-1.18
2022-11-18T12:06:07.513Z,-1.19
2022-11-18T12:08:34.145Z,-1.24
2022-11-18T12:11:37.744Z,-1.39
2022-11-18T12:14:13.482Z,-1.40
2022-11-18T12:16:50.236Z,-1.37
2022-11-18T12:19:19.420Z,-1.24
2022-11-18T12:21:46.218Z,-1.35
2022-11-18T12:24:34.455Z,-1.33
2022-11-18T12:27:06.276Z,-1.13
2022-11-18T12:29:43.628Z,-1.18
2022-11-18T12:32:42.210Z,-1.33
2022-11-18T12:35:11.564Z,-1.38
2022-11-18T12:37:44.095Z,-1.38
2022-11-18T12:40:30.803Z,-1.39
2022-11-18T12:43:15.704Z,-1.42
2022-11-18T12:45:45.926Z,-1.44
2022-11-18T12:48:27.730Z,-1.36
2022-11-18T12:50:56.769Z,-1.19
2022-11-18T12:53:42.810Z,-1.07
2022-11-18T12:56:22.283Z,-1.06
2022-11-18T12:58:54.616Z,-1.10
2022-11-18T13:01:26.743Z,-0.99
2022-11-18T13:04:06.941Z,-1.04
2022-11-18T13:06:35.007Z,-1.08
2022-11-18T13:09:03.613Z,-1.15
2022-11-18T13:11:47.513Z,-1.02
2022-11-18T13:15:08.406Z,-0.89
2022-11-18T13:17:52.496Z,-0.99
2022-11-18T13:20:35.441Z,-1.16
2022-11-18T13:23:24.409Z,-1.04
2022-11-18T13:25:51.059Z,-1.24
2022-11-18T13:28:37.677Z,-1.31
2022-11-18T13:31:19.640Z,-1.29
2022-11-18T13:33:46.413Z,-1.39
2022-11-18T13:36:17.855Z,-1.46
2022-11-18T13:39:02.022Z,-1.51
2022-11-18T13:41:33.739Z,-1.46
2022-11-18T13:44:17.854Z,-1.44
2022-11-18T13:46:47.816Z,-1.60
2022-11-18T13:49:18.734Z,-1.56
2022-11-18T13:51:46.252Z,-1.51
2022-11-18T13:54:20.973Z,-1.46
2022-11-18T13:56:47.707Z,-1.46
2022-11-18T13:59:18.572Z,-1.34
2022-11-18T14:01:46.199Z,-1.40
2022-11-18T14:04:21.633Z,-1.57
2022-11-18T14:06:49.487Z,-1.65
2022-11-18T14:09:27.039Z,-1.60
2022-11-18T14:12:02.952Z,-1.73
2022-11-18T14:14:37.155Z,-1.72
2022-11-18T14:17:22.875Z,-1.65
2022-11-18T14:19:51.647Z,-1.83
2022-11-18T14:22:25.778Z,-1.72
2022-11-18T14:24:59.038Z,-1.77
2022-11-18T14:27:40.217Z,-1.79
2022-11-18T14:30:28.891Z,-1.78
2022-11-18T14:33:15.700Z,-1.77
2022-11-18T14:35:51.982Z,-1.79
2022-11-18T14:38:57.534Z,-1.78
2022-11-18T14:41:14.444Z,-1.76
2022-11-18T14:43:41.543Z,-1.76
2022-11-18T14:46:14.403Z,-1.84
2022-11-18T14:48:41.082Z,-1.88
2022-11-18T14:51:10.392Z,-1.95
2022-11-18T14:53:36.864Z,-1.96
2022-11-18T14:56:04.369Z,-2.09
2022-11-18T14:58:30.875Z,-2.06
2022-11-18T15:00:57.460Z,-2.10
2022-11-18T15:03:24.200Z,-1.94
2022-11-18T15:05:50.905Z,-1.98
2022-11-18T15:08:17.346Z,-2.08
2022-11-18T15:10:43.948Z,-2.06
2022-11-18T15:13:10.500Z,-2.13
2022-11-18T15:15:36.987Z,-2.25
2022-11-18T15:18:03.538Z,-2.22
2022-11-18T15:20:30.252Z,-2.13
2022-11-18T15:22:56.768Z,-2.16
2022-11-18T15:25:23.456Z,-2.17
2022-11-18T15:27:50.032Z,-2.28
2022-11-18T15:30:16.559Z,-2.40
2022-11-18T15:32:43.190Z,-2.40
2022-11-18T15:35:11.826Z,-2.48
2022-11-18T15:37:38.594Z,-2.64
2022-11-18T15:40:05.338Z,-2.66
2022-11-18T15:42:32.042Z,-2.70
2022-11-18T15:44:58.451Z,-2.64
2022-11-18T15:47:25.177Z,-2.75
2022-11-18T15:49:51.764Z,-2.73
2022-11-18T15:52:18.966Z,-2.67
2022-11-18T15:54:45.549Z,-2.66
2022-11-18T15:57:12.213Z,-2.68
2022-11-18T15:59:38.637Z,-2.65
2022-11-18T16:02:05.116Z,-2.61
2022-11-18T16:04:31.763Z,-2.66
2022-11-18T16:07:00.230Z,-2.72
2022-11-18T16:09:46.868Z,-2.76
2022-11-18T16:12:31.845Z,-2.77
2022-11-18T16:15:18.523Z,-2.79
2022-11-18T16:17:45.019Z,-2.83
2022-11-18T16:20:12.094Z,-2.98
2022-11-18T16:22:38.505Z,-2.99
2022-11-18T16:25:05.274Z,-3.01
2022-11-18T16:27:31.980Z,-3.09
2022-11-18T16:29:58.738Z,-3.20
2022-11-18T16:32:25.211Z,-3.22
2022-11-18T16:34:55.268Z,-3.17
2022-11-18T16:37:24.509Z,-3.17
2022-11-18T16:39:50.982Z,-3.19
2022-11-18T16:42:17.577Z,-3.35
2022-11-18T16:44:44.148Z,-3.24
2022-11-18T16:47:15.004Z,-3.26
2022-11-18T16:49:42.136Z,-3.31
2022-11-18T16:52:09.271Z,-3.30
2022-11-18T16:54:41.013Z,-3.35
2022-11-18T16:57:09.654Z,-3.40
2022-11-18T16:59:36.796Z,-3.35
2022-11-18T17:02:03.726Z,-3.28
2022-11-18T17:04:30.672Z,-3.42
2022-11-18T17:06:59.916Z,-3.36
2022-11-18T17:09:26.859Z,-3.29
2022-11-18T17:11:55.350Z,-3.25
2022-11-18T17:14:23.168Z,-3.23
2022-11-18T17:16:49.976Z,-3.20
2022-11-18T17:19:18.828Z,-3.21
2022-11-18T17:21:46.019Z,-3.23
2022-11-18T17:24:17.311Z,-3.17
2022-11-18T17:26:44.242Z,-3.22
2022-11-18T17:29:12.464Z,-3.17
2022-11-18T17:31:39.520Z,-3.23
2022-11-18T17:34:06.621Z,-3.24
2022-11-18T17:36:33.245Z,-3.21
2022-11-18T17:39:00.558Z,-3.19
2022-11-18T17:41:46.937Z,-3.23
2022-11-18T17:44:15.721Z,-3.24
2022-11-18T17:46:42.531Z,-3.24
2022-11-18T17:49:18.005Z,-3.32
2022-11-18T17:51:46.042Z,-3.31
2022-11-18T17:54:14.234Z,-3.34
2022-11-18T17:56:40.880Z,-3.29
2022-11-18T17:59:07.490Z,-3.35
2022-11-18T18:01:34.235Z,-3.34
2022-11-18T18:04:00.719Z,-3.24
2022-11-18T18:06:27.308Z,-3.21
2022-11-18T18:08:57.323Z,-3.33
2022-11-18T18:11:25.500Z,-3.30
2022-11-18T18:14:11.146Z,-3.21
2022-11-18T18:16:39.210Z,-3.30
2022-11-18T18:19:07.534Z,-3.26
2022-11-18T18:21:35.669Z,-3.23
2022-11-18T18:24:03.547Z,-3.28
2022-11-18T18:26:31.949Z,-3.30
2022-11-18T18:28:59.950Z,-3.12
2022-11-18T18:31:26.749Z,-3.17
2022-11-18T18:33:53.343Z,-3.13
2022-11-18T18:36:20.555Z,-3.19
2022-11-18T18:38:47.447Z,-3.27
2022-11-18T18:41:19.903Z,-3.34
2022-11-18T18:43:47.115Z,-3.31
2022-11-18T18:46:34.323Z,-3.37
2022-11-18T18:49:22.354Z,-3.28
2022-11-18T18:51:55.638Z,-3.31
2022-11-18T18:54:22.359Z,-3.27
2022-11-18T18:56:49.080Z,-3.27
2022-11-18T18:59:15.635Z,-3.29
2022-11-18T19:01:42.260Z,-3.32
2022-11-18T19:04:13.005Z,-3.27
2022-11-18T19:09:26.898Z,-3.29
2022-11-18T19:12:12.479Z,-3.28
2022-11-18T19:14:39.604Z,-3.32
2022-11-18T19:17:10.633Z,-3.20
2022-11-18T19:19:56.569Z,-3.24
2022-11-18T19:22:23.192Z,-3.31
2022-11-18T19:27:38.793Z,-3.19
2022-11-18T19:30:07.295Z,-3.19
2022-11-18T19:32:40.823Z,-3.08
2022-11-18T19:35:08.265Z,-3.15
2022-11-18T19:37:34.946Z,-3.17
2022-11-18T19:40:07.103Z,-3.26
2022-11-18T19:42:37.653Z,-3.21
2022-11-18T19:45:05.152Z,-3.31
2022-11-18T19:47:32.175Z,-3.41
2022-11-18T19:49:58.693Z,-3.37
2022-11-18T19:52:25.167Z,-3.41
2022-11-18T19:54:51.754Z,-3.47
2022-11-18T19:57:18.257Z,-3.43
2022-11-18T19:59:45.872Z,-3.42
2022-11-18T20:02:12.831Z,-3.34
2022-11-18T20:04:39.356Z,-3.38
2022-11-18T20:07:06.206Z,-3.42
2022-11-18T20:09:32.810Z,-3.46
2022-11-18T20:11:59.389Z,-3.41
2022-11-18T20:14:25.831Z,-3.48
2022-11-18T20:16:52.416Z,-3.32
2022-11-18T20:19:19.183Z,-3.32
2022-11-18T20:21:47.960Z,-3.37
2022-11-18T20:24:16.604Z,-3.28
2022-11-18T20:26:43.269Z,-3.38
2022-11-18T20:29:10.221Z,-3.42
2022-11-18T20:31:37.171Z,-3.44
2022-11-18T20:34:04.197Z,-3.42
2022-11-18T20:36:33.237Z,-3.46
2022-11-18T20:39:05.073Z,-3.46
2022-11-18T20:41:32.448Z,-3.38
2022-11-18T20:44:01.058Z,-3.53
2022-11-18T20:46:27.685Z,-3.64
2022-11-18T20:48:57.807Z,-3.51
2022-11-18T20:51:26.835Z,-3.46
2022-11-18T20:53:55.455Z,-3.43
2022-11-18T20:56:25.680Z,-3.57
2022-11-18T20:58:52.461Z,-3.63
2022-11-18T21:01:23.101Z,-3.70
2022-11-18T21:03:52.764Z,-3.63
2022-11-18T21:06:19.998Z,-3.53
2022-11-18T21:08:46.571Z,-3.49
2022-11-18T21:11:13.680Z,-3.48
2022-11-18T21:13:59.670Z,-3.53
2022-11-18T21:16:27.145Z,-3.53
2022-11-18T21:18:53.674Z,-3.49
2022-11-18T21:21:38.876Z,-3.41
2022-11-18T21:24:05.691Z,-3.25
2022-11-18T21:26:34.170Z,-3.29
2022-11-18T21:29:01.947Z,-3.29
2022-11-18T21:31:28.877Z,-3.37
2022-11-18T21:33:56.064Z,-3.44
2022-11-18T21:36:23.606Z,-3.58
2022-11-18T21:38:50.467Z,-3.56
2022-11-18T21:41:17.147Z,-3.52
2022-11-18T21:44:04.518Z,-3.61
2022-11-18T21:46:31.032Z,-3.72
2022-11-18T21:49:00.249Z,-3.78
2022-11-18T21:51:27.244Z,-3.73
2022-11-18T21:53:56.346Z,-3.87
2022-11-18T21:56:25.275Z,-3.80
2022-11-18T21:58:52.636Z,-3.73
2022-11-18T22:01:21.511Z,-3.87
2022-11-18T22:03:54.986Z,-3.87
2022-11-18T22:06:24.208Z,-3.98
2022-11-18T22:08:51.341Z,-3.97
2022-11-18T22:11:18.243Z,-4.03
2022-11-18T22:13:44.772Z,-4.00
2022-11-18T22:16:13.397Z,-4.14
2022-11-18T22:18:42.287Z,-4.02
2022-11-18T22:21:12.220Z,-4.00
2022-11-18T22:23:38.783Z,-4.06
2022-11-18T22:26:15.061Z,-4.07
2022-11-18T22:28:41.911Z,-4.04
2022-11-18T22:31:11.868Z,-4.03
2022-11-18T22:33:38.492Z,-3.99
2022-11-18T22:36:10.071Z,-3.98
2022-11-18T22:38:36.997Z,-3.98
2022-11-18T22:41:06.044Z,-3.90
2022-11-18T22:43:33.549Z,-3.98
2022-11-18T22:46:08.769Z,-3.95
2022-11-18T22:48:35.549Z,-3.95
2022-11-18T22:51:04.261Z,-3.81
2022-11-18T22:53:31.803Z,-3.87
2022-11-18T22:56:09.134Z,-3.84
2022-11-18T22:58:35.554Z,-3.87
2022-11-18T23:01:03.929Z,-3.90
2022-11-18T23:03:31.066Z,-3.93
2022-11-18T23:05:58.002Z,-3.93
2022-11-18T23:08:24.525Z,-4.01
2022-11-18T23:10:51.268Z,-3.91
2022-11-18T23:13:36.928Z,-3.92
2022-11-18T23:16:03.491Z,-4.08
2022-11-18T23:18:30.151Z,-3.92
2022-11-18T23:21:01.053Z,-3.88
2022-11-18T23:23:28.548Z,-3.75
2022-11-18T23:25:55.487Z,-3.82
2022-11-18T23:28:22.121Z,-3.80
2022-11-18T23:30:48.777Z,-3.91
2022-11-18T23:33:15.309Z,-3.90
2022-11-18T23:35:41.782Z,-3.83
2022-11-18T23:38:08.207Z,-3.84
2022-11-18T23:40:34.784Z,-3.80
2022-11-18T23:43:01.234Z,-3.77
2022-11-18T23:45:27.638Z,-3.66
2022-11-18T23:47:54.627Z,-3.66
2022-11-18T23:50:21.051Z,-3.78
2022-11-18T23:52:47.555Z,-3.76
2022-11-18T23:55:14.009Z,-3.66
2022-11-18T23:57:40.437Z,-3.67
